Terminal Aerodrome Forecast
Issued by NWS

Current Version | Previous Version | Graphics & Text | Print | Product List | Glossary On
Versions: 1 2 3 4 5 6 7 8 9 10 11 12 13 14 15 16 17 18 19 20 21 22 23 24 25 26 27 28 29
000
FTUS41 KILN 271558 AAB
TAFLUK
TAF AMD
KLUK 271558Z 2716/2812 VRB03KT P6SM SCT035 SCT050
      TEMPO 2716/2718 BKN025
     FM271900 VRB04KT P6SM VCTS BKN040CB BKN150
     FM272200 00000KT P6SM BKN120
     FM280600 00000KT 3SM BR BKN050=

USA.gov is the U.S. government's official web portal to all federal, state and local government web resources and services.